Time;durP1;ratioP1;P1;durP2;ratioP2;P2;SDS_P1;SDS_P2;PMS_P1;PMS_P2;Temp;Humidity;BMP_temperature;BMP_pressure;BME280_temperature;BME280_humidity;BME280_pressure;Samples;Min_cycle;Max_cycle;Signal;HPM_P1;HPM_P2
2022/01/28 00:03:01;;;;;;;32.70;17.33;;;;;;;;;;6257049;28;20033;-74
2022/01/28 00:06:02;;;;;;;31.10;15.77;;;;;;;;;;6256504;28;20027;-74
2022/01/28 00:09:02;;;;;;;33.30;16.02;;;;;;;;;;6236933;28;20021;-74
2022/01/28 00:12:03;;;;;;;30.08;17.05;;;;;;;;;;6242489;28;20022;-74
2022/01/28 00:15:16;;;;;;;22.92;14.52;;;;;;;;;;6242094;28;20030;-74
2022/01/28 00:36:30;;;;;;;23.35;10.73;;;;;;;;;;6242239;28;20448;-73
2022/01/28 00:38:25;;;;;;;22.80;10.90;;;;;;;;;;6242465;28;20037;-75
2022/01/28 00:41:25;;;;;;;23.40;12.65;;;;;;;;;;6242259;28;20096;-75
2022/01/28 00:44:25;;;;;;;10.87;6.83;;;;;;;;;;6242293;28;20381;-75
2022/01/28 00:47:26;;;;;;;29.08;15.45;;;;;;;;;;6242017;28;20260;-75
2022/01/28 00:50:26;;;;;;;22.53;10.43;;;;;;;;;;6241853;28;20096;-75
2022/01/28 00:53:26;;;;;;;17.05;9.82;;;;;;;;;;6233813;28;20275;-75
2022/01/28 00:56:26;;;;;;;22.70;12.20;;;;;;;;;;6261258;28;20087;-75
2022/01/28 00:59:27;;;;;;;12.63;6.95;;;;;;;;;;6247757;28;20255;-75
2022/01/28 01:02:27;;;;;;;18.73;9.93;;;;;;;;;;6241636;28;20029;-75
2022/01/28 01:05:30;;;;;;;24.60;11.57;;;;;;;;;;6233080;28;20313;-75
2022/01/28 01:08:30;;;;;;;16.33;8.68;;;;;;;;;;6246670;28;20025;-75
2022/01/28 01:11:31;;;;;;;27.67;13.20;;;;;;;;;;6266517;28;20393;-75
2022/01/28 01:14:31;;;;;;;31.92;15.13;;;;;;;;;;6266346;28;20743;-75
2022/01/28 01:17:37;;;;;;;15.82;8.82;;;;;;;;;;6266529;28;20021;-75
2022/01/28 01:23:40;;;;;;;21.97;11.20;;;;;;;;;;6266827;28;20028;-76
2022/01/28 01:26:41;;;;;;;28.25;13.43;;;;;;;;;;6267088;28;20619;-76
2022/01/28 01:29:46;;;;;;;23.92;11.10;;;;;;;;;;6252217;28;20053;-76
2022/01/28 01:32:46;;;;;;;17.65;10.63;;;;;;;;;;6252536;28;20056;-76
2022/01/28 01:35:46;;;;;;;18.88;10.82;;;;;;;;;;6270745;28;20534;-76
2022/01/28 01:38:46;;;;;;;18.15;8.90;;;;;;;;;;6270031;28;20044;-76
2022/01/28 01:41:54;;;;;;;20.38;11.10;;;;;;;;;;6262706;28;20037;-76
2022/01/28 01:54:59;;;;;;;22.63;11.25;;;;;;;;;;6269800;28;20442;-76
2022/01/28 01:57:59;;;;;;;21.10;10.90;;;;;;;;;;6245359;28;20036;-76
2022/01/28 02:01:00;;;;;;;22.73;12.77;;;;;;;;;;6262332;28;20275;-76
2022/01/28 02:04:00;;;;;;;16.35;9.40;;;;;;;;;;6232531;28;20018;-76
2022/01/28 02:07:01;;;;;;;20.83;11.07;;;;;;;;;;6267091;28;20096;-76
2022/01/28 02:10:01;;;;;;;18.63;10.75;;;;;;;;;;6248728;28;20096;-76
2022/01/28 02:13:01;;;;;;;23.92;13.52;;;;;;;;;;6244896;28;20037;-76
2022/01/28 02:16:02;;;;;;;21.02;12.18;;;;;;;;;;6246147;28;20025;-77
2022/01/28 02:19:03;;;;;;;20.60;9.77;;;;;;;;;;6260621;28;20029;-77
2022/01/28 02:22:03;;;;;;;21.92;10.75;;;;;;;;;;6243286;28;20572;-76
2022/01/28 02:25:04;;;;;;;17.48;9.05;;;;;;;;;;6244887;28;20021;-76
2022/01/28 02:28:06;;;;;;;16.70;9.02;;;;;;;;;;6251458;28;20461;-76
2022/01/28 02:31:07;;;;;;;18.27;9.57;;;;;;;;;;6268908;28;20054;-76
2022/01/28 02:34:10;;;;;;;17.92;7.97;;;;;;;;;;6251445;28;20381;-76
2022/01/28 02:37:10;;;;;;;23.13;11.15;;;;;;;;;;6268634;28;20431;-76
2022/01/28 02:40:11;;;;;;;15.13;8.20;;;;;;;;;;6268913;28;20021;-76
2022/01/28 02:46:21;;;;;;;18.63;11.15;;;;;;;;;;6265624;28;20051;-77
2022/01/28 02:49:21;;;;;;;19.02;7.30;;;;;;;;;;6256595;28;20021;-76
2022/01/28 02:52:36;;;;;;;16.00;8.15;;;;;;;;;;6244362;28;20367;-76
2022/01/28 02:55:39;;;;;;;17.85;10.40;;;;;;;;;;6263361;28;20063;-76
2022/01/28 02:58:40;;;;;;;18.55;10.25;;;;;;;;;;6269239;28;20074;-76
2022/01/28 03:01:40;;;;;;;17.88;10.07;;;;;;;;;;6242141;28;20374;-76
2022/01/28 03:07:41;;;;;;;16.77;7.33;;;;;;;;;;6267696;28;20078;-76
2022/01/28 03:17:29;;;;;;;34.35;11.32;;;;;;;;;;6243760;28;20021;-76
2022/01/28 03:20:37;;;;;;;;;;;;;;;;;;6225806;28;20021;-76
2022/01/28 03:23:38;;;;;;;15.80;8.13;;;;;;;;;;6243806;28;19913;-76
2022/01/28 03:26:39;;;;;;;16.23;7.53;;;;;;;;;;6233718;28;20407;-76
2022/01/28 03:29:39;;;;;;;20.42;8.80;;;;;;;;;;6249192;28;20049;-77
2022/01/28 03:32:39;;;;;;;24.75;10.93;;;;;;;;;;6249905;28;20150;-77
2022/01/28 03:35:39;;;;;;;16.67;8.43;;;;;;;;;;6249555;28;20056;-77
2022/01/28 03:38:41;;;;;;;19.27;10.90;;;;;;;;;;6250169;28;20468;-77
2022/01/28 03:41:41;;;;;;;15.15;8.43;;;;;;;;;;6249485;28;20275;-77
2022/01/28 03:44:41;;;;;;;19.50;8.95;;;;;;;;;;6249770;28;20020;-77
2022/01/28 03:47:42;;;;;;;16.90;7.90;;;;;;;;;;6267944;28;20017;-77
2022/01/28 03:50:42;;;;;;;6.97;4.10;;;;;;;;;;6248787;28;20488;-77
2022/01/28 03:53:42;;;;;;;8.27;4.63;;;;;;;;;;6266421;28;20347;-77
2022/01/28 03:56:42;;;;;;;9.43;4.25;;;;;;;;;;6253813;28;20036;-77
2022/01/28 03:59:43;;;;;;;9.37;4.57;;;;;;;;;;6249470;28;20025;-77
2022/01/28 04:02:44;;;;;;;18.90;8.63;;;;;;;;;;6267482;28;20287;-77
2022/01/28 04:11:26;;;;;;;18.83;9.35;;;;;;;;;;6256180;28;20260;-77
2022/01/28 04:12:26;;;;;;;15.52;7.15;;;;;;;;;;6267748;28;20029;-77
2022/01/28 04:15:49;;;;;;;12.57;6.55;;;;;;;;;;6249864;28;20028;-77
2022/01/28 04:18:50;;;;;;;12.45;6.10;;;;;;;;;;6267412;28;20021;-77
2022/01/28 04:21:50;;;;;;;14.03;8.97;;;;;;;;;;6249043;28;20070;-77
2022/01/28 04:24:51;;;;;;;16.20;10.77;;;;;;;;;;6249229;28;20256;-76
2022/01/28 04:27:51;;;;;;;17.77;9.43;;;;;;;;;;6267032;28;20484;-75
2022/01/28 04:30:51;;;;;;;18.13;10.07;;;;;;;;;;6266202;28;20110;-76
2022/01/28 04:33:53;;;;;;;20.23;10.90;;;;;;;;;;6267137;28;20287;-77
2022/01/28 04:40:02;;;;;;;14.93;6.87;;;;;;;;;;6266852;28;20032;-77
2022/01/28 04:43:14;;;;;;;11.85;5.25;;;;;;;;;;6248908;28;20279;-77
2022/01/28 04:46:41;;;;;;;12.43;5.32;;;;;;;;;;6266803;28;20013;-77
2022/01/28 04:49:51;;;;;;;14.63;6.80;;;;;;;;;;6265941;28;20368;-77
2022/01/28 04:53:06;;;;;;;13.30;6.43;;;;;;;;;;6248618;28;20107;-77
2022/01/28 04:56:24;;;;;;;19.20;11.18;;;;;;;;;;6240204;28;20061;-77
2022/01/28 04:59:38;;;;;;;22.50;12.40;;;;;;;;;;6246362;28;20108;-77
2022/01/28 05:03:21;;;;;;;21.70;13.63;;;;;;;;;;6244072;28;20025;-76
2022/01/28 05:28:40;;;;;;;31.92;19.33;;;;;;;;;;6270941;28;20068;-74
2022/01/28 05:31:40;;;;;;;35.60;21.40;;;;;;;;;;6252542;28;20020;-74
2022/01/28 05:34:40;;;;;;;37.17;23.60;;;;;;;;;;6270583;28;20028;-74
2022/01/28 05:37:41;;;;;;;39.50;22.90;;;;;;;;;;6270443;28;20291;-74
2022/01/28 05:40:41;;;;;;;30.17;19.92;;;;;;;;;;6269966;28;20052;-74
2022/01/28 05:43:41;;;;;;;38.63;19.98;;;;;;;;;;6270439;28;20317;-74
2022/01/28 05:46:41;;;;;;;29.40;18.15;;;;;;;;;;6262625;28;20782;-74
2022/01/28 05:49:43;;;;;;;33.25;20.15;;;;;;;;;;6264474;28;20083;-74
2022/01/28 05:52:43;;;;;;;41.77;27.70;;;;;;;;;;6254177;28;20017;-74
2022/01/28 05:55:43;;;;;;;33.60;19.83;;;;;;;;;;6252091;28;20274;-74
2022/01/28 05:58:43;;;;;;;30.50;16.52;;;;;;;;;;6252173;28;20036;-74
2022/01/28 06:01:43;;;;;;;29.23;17.93;;;;;;;;;;6268545;28;20337;-74
2022/01/28 06:04:44;;;;;;;30.97;18.00;;;;;;;;;;6245244;28;20399;-74
2022/01/28 06:07:45;;;;;;;28.45;14.90;;;;;;;;;;6267987;28;20283;-74
2022/01/28 06:10:45;;;;;;;32.23;17.47;;;;;;;;;;6226777;28;20060;-74
2022/01/28 06:13:45;;;;;;;22.02;11.77;;;;;;;;;;6261818;28;20312;-74
2022/01/28 06:16:46;;;;;;;26.70;14.20;;;;;;;;;;6251541;28;20028;-75
2022/01/28 06:19:46;;;;;;;28.65;14.30;;;;;;;;;;6232252;28;20424;-75
2022/01/28 06:22:46;;;;;;;21.08;10.65;;;;;;;;;;6244579;28;20017;-75
2022/01/28 06:25:48;;;;;;;27.73;14.10;;;;;;;;;;6249793;28;20846;-75
2022/01/28 06:28:48;;;;;;;20.73;13.07;;;;;;;;;;6243873;28;20037;-75
2022/01/28 06:31:49;;;;;;;14.60;9.13;;;;;;;;;;6261902;28;20027;-75
2022/01/28 06:34:49;;;;;;;18.25;10.18;;;;;;;;;;6255148;28;20036;-75
2022/01/28 06:37:49;;;;;;;25.00;11.10;;;;;;;;;;6241459;28;20556;-76
2022/01/28 06:40:50;;;;;;;18.77;10.43;;;;;;;;;;6241949;28;20028;-76
2022/01/28 06:43:50;;;;;;;19.25;10.10;;;;;;;;;;6257368;28;20271;-76
2022/01/28 06:46:51;;;;;;;27.83;11.85;;;;;;;;;;6258306;28;20381;-76
2022/01/28 06:49:51;;;;;;;14.68;6.45;;;;;;;;;;6246617;28;20025;-76
2022/01/28 06:52:51;;;;;;;28.15;12.43;;;;;;;;;;6251185;28;20025;-77
2022/01/28 06:55:51;;;;;;;27.88;14.25;;;;;;;;;;6251463;28;20466;-77
2022/01/28 06:58:51;;;;;;;25.10;14.97;;;;;;;;;;6254583;28;20489;-77
2022/01/28 07:01:53;;;;;;;35.53;13.68;;;;;;;;;;6240528;28;20314;-77
2022/01/28 07:04:53;;;;;;;31.42;17.70;;;;;;;;;;6240919;28;20271;-77
2022/01/28 07:07:54;;;;;;;28.95;15.52;;;;;;;;;;6257814;28;20025;-77
2022/01/28 07:10:54;;;;;;;25.33;14.17;;;;;;;;;;6255604;28;20017;-76
2022/01/28 07:13:54;;;;;;;36.00;17.00;;;;;;;;;;6256673;28;20262;-76
2022/01/28 07:16:54;;;;;;;22.33;13.00;;;;;;;;;;6254784;28;20292;-76
2022/01/28 07:19:54;;;;;;;19.67;9.67;;;;;;;;;;6231736;28;20635;-76
2022/01/28 07:22:55;;;;;;;22.08;11.88;;;;;;;;;;6235240;28;20633;-76
2022/01/28 07:25:55;;;;;;;14.30;8.20;;;;;;;;;;6248971;28;20109;-76
2022/01/28 07:28:55;;;;;;;21.70;9.80;;;;;;;;;;6245757;28;20339;-76
2022/01/28 07:31:56;;;;;;;24.55;9.43;;;;;;;;;;6240536;28;20585;-76
2022/01/28 07:34:56;;;;;;;13.32;4.93;;;;;;;;;;6246896;28;20021;-76
2022/01/28 07:37:56;;;;;;;22.67;5.47;;;;;;;;;;6245532;28;20432;-76
2022/01/28 07:40:58;;;;;;;12.43;5.80;;;;;;;;;;6247806;28;20328;-77
2022/01/28 07:43:59;;;;;;;15.85;6.43;;;;;;;;;;6253457;28;20306;-77
2022/01/28 07:46:59;;;;;;;20.67;4.50;;;;;;;;;;6234047;28;20431;-77
2022/01/28 07:49:59;;;;;;;12.17;5.93;;;;;;;;;;6252367;28;20025;-77
2022/01/28 07:52:59;;;;;;;10.30;4.63;;;;;;;;;;6234238;28;20268;-77
2022/01/28 07:56:00;;;;;;;11.43;4.32;;;;;;;;;;6249202;28;20013;-78
2022/01/28 07:59:00;;;;;;;19.03;5.50;;;;;;;;;;6253633;28;20074;-77
2022/01/28 08:02:00;;;;;;;19.70;4.57;;;;;;;;;;6236346;28;20838;-77
2022/01/28 08:05:01;;;;;;;14.13;6.07;;;;;;;;;;6262603;28;20021;-78
2022/01/28 08:08:05;;;;;;;17.92;9.38;;;;;;;;;;6254161;28;20255;-78
2022/01/28 08:11:05;;;;;;;27.65;8.18;;;;;;;;;;6247888;28;20020;-78
2022/01/28 08:14:05;;;;;;;33.80;13.85;;;;;;;;;;6248640;28;20033;-78
2022/01/28 08:17:05;;;;;;;40.20;16.97;;;;;;;;;;6260987;28;20098;-78
2022/01/28 08:20:06;;;;;;;57.30;21.05;;;;;;;;;;6233072;28;20417;-77
2022/01/28 08:23:06;;;;;;;47.30;20.35;;;;;;;;;;6251110;28;20024;-77
2022/01/28 08:26:06;;;;;;;51.33;21.05;;;;;;;;;;6260969;28;20045;-77
2022/01/28 08:29:07;;;;;;;48.08;18.67;;;;;;;;;;6240105;28;20557;-77
2022/01/28 08:32:07;;;;;;;32.35;12.40;;;;;;;;;;6233718;28;20028;-77
2022/01/28 08:35:08;;;;;;;46.85;19.38;;;;;;;;;;6233979;28;20056;-78
2022/01/28 08:38:15;;;;;;;39.97;15.02;;;;;;;;;;6252627;28;20021;-78
2022/01/28 08:41:15;;;;;;;22.10;10.60;;;;;;;;;;6248015;28;20031;-78
2022/01/28 08:44:15;;;;;;;25.25;8.32;;;;;;;;;;6244346;28;20025;-78
2022/01/28 08:47:16;;;;;;;16.25;6.85;;;;;;;;;;6244875;28;20032;-78
2022/01/28 08:50:16;;;;;;;29.35;14.88;;;;;;;;;;6244412;28;20025;-78
2022/01/28 08:53:16;;;;;;;21.27;10.32;;;;;;;;;;6263138;28;20025;-78
2022/01/28 08:56:16;;;;;;;27.38;11.90;;;;;;;;;;6241937;28;20139;-78
2022/01/28 08:59:17;;;;;;;12.00;5.33;;;;;;;;;;6231987;28;20025;-78
2022/01/28 09:02:17;;;;;;;17.67;6.60;;;;;;;;;;6258660;28;20287;-76
2022/01/28 09:05:18;;;;;;;12.05;5.35;;;;;;;;;;6250057;28;20314;-76
2022/01/28 09:08:18;;;;;;;20.30;5.67;;;;;;;;;;6242112;28;20465;-76
2022/01/28 09:14:39;;;;;;;13.23;7.93;;;;;;;;;;6232797;28;20029;-76
2022/01/28 09:17:39;;;;;;;13.37;6.97;;;;;;;;;;6241388;28;20405;-76
2022/01/28 09:20:40;;;;;;;24.08;8.65;;;;;;;;;;6257056;28;20263;-76
2022/01/28 09:23:41;;;;;;;18.67;8.65;;;;;;;;;;6261356;28;20025;-76
2022/01/28 09:26:41;;;;;;;22.20;8.90;;;;;;;;;;6251371;28;20017;-76
2022/01/28 09:29:41;;;;;;;20.50;7.40;;;;;;;;;;6259785;28;20519;-76
2022/01/28 09:32:42;;;;;;;12.23;6.30;;;;;;;;;;6253432;28;20025;-76
2022/01/28 09:35:42;;;;;;;16.90;8.07;;;;;;;;;;6248189;28;20059;-76
2022/01/28 09:38:42;;;;;;;22.27;9.57;;;;;;;;;;6243438;28;20278;-76
2022/01/28 09:41:46;;;;;;;13.98;6.15;;;;;;;;;;6261125;28;20563;-75
2022/01/28 09:44:46;;;;;;;15.98;5.82;;;;;;;;;;6245472;28;20481;-76
2022/01/28 09:47:47;;;;;;;20.10;10.55;;;;;;;;;;6265628;28;20040;-75
2022/01/28 09:50:47;;;;;;;13.73;7.07;;;;;;;;;;6248593;28;20036;-76
2022/01/28 09:53:47;;;;;;;26.75;9.80;;;;;;;;;;6252249;28;20435;-76
2022/01/28 09:56:48;;;;;;;32.05;14.27;;;;;;;;;;6253125;28;20010;-76
2022/01/28 09:59:48;;;;;;;36.97;17.77;;;;;;;;;;6250618;28;20021;-76
2022/01/28 10:02:49;;;;;;;60.30;29.05;;;;;;;;;;6249697;28;20590;-76
2022/01/28 10:05:50;;;;;;;60.35;26.02;;;;;;;;;;6249422;28;20017;-76
2022/01/28 10:08:55;;;;;;;52.83;24.73;;;;;;;;;;6242760;28;20029;-76
2022/01/28 10:12:12;;;;;;;65.30;29.17;;;;;;;;;;6266712;28;20099;-76
2022/01/28 10:15:28;;;;;;;37.83;18.45;;;;;;;;;;6245169;28;20026;-76
2022/01/28 10:18:38;;;;;;;28.45;16.42;;;;;;;;;;6256289;28;20086;-76
2022/01/28 10:21:43;;;;;;;29.77;14.38;;;;;;;;;;6255675;28;20017;-76
2022/01/28 10:24:43;;;;;;;23.75;10.15;;;;;;;;;;6241928;28;20016;-76
2022/01/28 10:28:00;;;;;;;11.93;6.65;;;;;;;;;;6256352;28;20044;-76
2022/01/28 10:31:03;;;;;;;12.93;6.03;;;;;;;;;;6259393;28;20053;-76
2022/01/28 10:34:21;;;;;;;15.48;8.23;;;;;;;;;;6233664;28;20083;-76
2022/01/28 10:37:25;;;;;;;24.20;13.38;;;;;;;;;;6231530;28;20493;-77
2022/01/28 10:40:25;;;;;;;22.38;12.52;;;;;;;;;;6251757;28;20071;-77
2022/01/28 10:43:26;;;;;;;40.05;19.45;;;;;;;;;;6242550;28;20030;-76
2022/01/28 10:46:33;;;;;;;38.10;17.47;;;;;;;;;;6258204;28;20028;-76
2022/01/28 10:49:34;;;;;;;74.38;37.40;;;;;;;;;;6227556;28;20275;-76
2022/01/28 10:52:34;;;;;;;34.42;16.88;;;;;;;;;;6253625;28;20033;-76
2022/01/28 10:55:36;;;;;;;21.85;11.50;;;;;;;;;;6263541;28;20019;-76
2022/01/28 10:58:39;;;;;;;38.22;18.73;;;;;;;;;;6257476;28;20056;-76
2022/01/28 11:01:40;;;;;;;42.38;20.40;;;;;;;;;;6236559;28;20017;-76
2022/01/28 11:04:42;;;;;;;32.95;17.38;;;;;;;;;;6258636;28;20135;-76
2022/01/28 11:07:42;;;;;;;23.08;9.27;;;;;;;;;;6254865;28;20009;-76
2022/01/28 11:10:43;;;;;;;28.00;12.67;;;;;;;;;;6248323;28;20049;-76
2022/01/28 11:13:44;;;;;;;23.98;9.65;;;;;;;;;;6253301;28;20074;-76
2022/01/28 11:16:45;;;;;;;17.90;11.87;;;;;;;;;;6265520;28;20028;-76
2022/01/28 11:19:46;;;;;;;19.73;9.30;;;;;;;;;;6262577;28;20036;-76
2022/01/28 11:23:05;;;;;;;16.30;8.13;;;;;;;;;;6248347;28;20048;-76
2022/01/28 11:26:11;;;;;;;12.48;7.47;;;;;;;;;;6248913;28;20116;-76
2022/01/28 11:29:17;;;;;;;14.50;7.10;;;;;;;;;;6265607;28;20080;-76
2022/01/28 11:32:17;;;;;;;15.15;9.00;;;;;;;;;;6266289;28;20028;-76
2022/01/28 11:35:20;;;;;;;16.90;12.18;;;;;;;;;;6248915;28;20020;-76
2022/01/28 11:38:26;;;;;;;15.13;8.68;;;;;;;;;;6266227;28;20428;-76
2022/01/28 11:41:27;;;;;;;16.67;7.95;;;;;;;;;;6227409;28;20021;-76
2022/01/28 11:44:40;;;;;;;15.93;10.40;;;;;;;;;;6252106;28;20014;-76
2022/01/28 11:47:51;;;;;;;28.95;11.90;;;;;;;;;;6244514;28;20291;-76
2022/01/28 11:50:52;;;;;;;29.23;13.95;;;;;;;;;;6229051;28;20074;-76
2022/01/28 11:53:59;;;;;;;77.75;31.33;;;;;;;;;;6254165;28;20017;-76
2022/01/28 11:57:01;;;;;;;59.00;27.63;;;;;;;;;;6238783;28;20025;-76
2022/01/28 12:00:21;;;;;;;41.97;15.98;;;;;;;;;;6255585;28;20074;-76
2022/01/28 12:03:25;;;;;;;28.23;14.73;;;;;;;;;;6259334;28;20017;-76
2022/01/28 12:06:27;;;;;;;72.30;34.03;;;;;;;;;;6229089;28;20392;-76
2022/01/28 12:09:28;;;;;;;40.05;20.08;;;;;;;;;;6258329;28;20037;-76
2022/01/28 12:12:41;;;;;;;36.73;17.13;;;;;;;;;;6247031;28;20416;-77
2022/01/28 12:16:09;;;;;;;43.33;19.67;;;;;;;;;;6245281;28;20352;-76
2022/01/28 12:19:17;;;;;;;26.02;13.93;;;;;;;;;;6226266;28;20380;-77
2022/01/28 12:22:17;;;;;;;51.20;20.33;;;;;;;;;;6229084;28;20029;-77
2022/01/28 12:25:35;;;;;;;41.77;18.43;;;;;;;;;;6252773;28;20025;-76
2022/01/28 12:28:36;;;;;;;28.83;12.05;;;;;;;;;;6235910;28;20683;-77
2022/01/28 12:31:36;;;;;;;41.15;18.85;;;;;;;;;;6263255;28;20043;-77
2022/01/28 12:34:43;;;;;;;26.65;12.20;;;;;;;;;;6226259;28;20260;-76
2022/01/28 12:37:58;;;;;;;40.38;19.17;;;;;;;;;;6226123;28;20029;-77
2022/01/28 12:41:06;;;;;;;34.13;16.00;;;;;;;;;;6246545;28;20018;-77
2022/01/28 12:44:06;;;;;;;30.00;14.60;;;;;;;;;;6249717;28;20032;-77
2022/01/28 12:47:09;;;;;;;29.20;13.57;;;;;;;;;;6249990;28;20022;-77
2022/01/28 12:50:09;;;;;;;25.33;11.38;;;;;;;;;;6249449;28;20499;-77
2022/01/28 12:53:10;;;;;;;31.42;16.48;;;;;;;;;;6252607;28;20025;-76
2022/01/28 12:56:10;;;;;;;23.92;13.63;;;;;;;;;;6246393;28;20128;-76
2022/01/28 12:59:11;;;;;;;25.88;11.73;;;;;;;;;;6262134;28;20029;-76
2022/01/28 13:02:11;;;;;;;22.10;10.23;;;;;;;;;;6251881;28;20013;-76
2022/01/28 13:05:14;;;;;;;24.17;9.07;;;;;;;;;;6250567;28;20024;-76
2022/01/28 13:08:27;;;;;;;24.17;8.82;;;;;;;;;;6249618;28;20021;-76
2022/01/28 13:11:28;;;;;;;27.67;14.88;;;;;;;;;;6264726;28;20017;-76
2022/01/28 13:14:34;;;;;;;19.25;10.30;;;;;;;;;;6265001;28;20096;-76
2022/01/28 13:17:35;;;;;;;25.90;8.65;;;;;;;;;;6252431;28;20017;-76
2022/01/28 13:20:36;;;;;;;29.85;14.18;;;;;;;;;;6261326;28;20406;-76
2022/01/28 13:23:36;;;;;;;36.55;13.52;;;;;;;;;;6265180;28;20027;-76
2022/01/28 13:26:51;;;;;;;30.75;11.95;;;;;;;;;;6264691;28;20002;-75
2022/01/28 13:29:53;;;;;;;28.80;13.23;;;;;;;;;;6260454;28;20048;-75
2022/01/28 13:33:00;;;;;;;14.55;6.88;;;;;;;;;;6255794;28;20017;-76
2022/01/28 13:36:01;;;;;;;18.48;9.63;;;;;;;;;;6262421;28;20032;-76
2022/01/28 13:39:12;;;;;;;21.60;8.77;;;;;;;;;;6270890;28;20104;-76
2022/01/28 13:42:13;;;;;;;21.50;11.27;;;;;;;;;;6258780;28;20051;-75
2022/01/28 13:45:15;;;;;;;24.63;9.00;;;;;;;;;;6245369;28;20018;-75
2022/01/28 13:48:21;;;;;;;32.47;13.88;;;;;;;;;;6254752;28;20025;-75
2022/01/28 13:51:23;;;;;;;24.80;9.73;;;;;;;;;;6239530;28;20117;-75
2022/01/28 13:54:30;;;;;;;26.27;8.70;;;;;;;;;;6248737;28;20025;-75
2022/01/28 13:57:30;;;;;;;18.50;7.60;;;;;;;;;;6248747;28;20026;-75
2022/01/28 14:01:00;;;;;;;30.97;14.23;;;;;;;;;;6240999;28;20083;-75
2022/01/28 14:04:01;;;;;;;36.63;16.40;;;;;;;;;;6216584;28;20279;-75
2022/01/28 14:07:07;;;;;;;40.13;15.57;;;;;;;;;;6245582;28;20033;-75
2022/01/28 14:10:15;;;;;;;30.25;15.85;;;;;;;;;;6248568;28;20477;-75
2022/01/28 14:13:22;;;;;;;19.85;11.73;;;;;;;;;;6256946;28;20433;-75
2022/01/28 14:16:22;;;;;;;30.52;10.85;;;;;;;;;;6245268;28;20025;-76
2022/01/28 14:19:23;;;;;;;24.20;10.33;;;;;;;;;;6245265;28;20493;-75
2022/01/28 14:22:23;;;;;;;20.05;9.30;;;;;;;;;;6245026;28;20283;-76
2022/01/28 14:25:24;;;;;;;23.55;10.85;;;;;;;;;;6227408;28;20025;-75
2022/01/28 14:28:38;;;;;;;29.75;12.60;;;;;;;;;;6245034;28;20731;-75
2022/01/28 14:31:38;;;;;;;22.77;11.05;;;;;;;;;;6249594;28;20033;-76
2022/01/28 14:34:38;;;;;;;38.70;12.50;;;;;;;;;;6251017;28;20074;-76
2022/01/28 14:37:40;;;;;;;21.85;9.52;;;;;;;;;;6269543;28;20163;-75
2022/01/28 14:40:40;;;;;;;29.13;14.02;;;;;;;;;;6269207;28;20070;-75
2022/01/28 14:43:41;;;;;;;23.57;12.03;;;;;;;;;;6250988;28;20308;-76
2022/01/28 14:46:41;;;;;;;23.52;11.43;;;;;;;;;;6251694;28;20258;-75
2022/01/28 14:49:42;;;;;;;54.45;24.65;;;;;;;;;;6269041;28;20048;-75
2022/01/28 14:52:42;;;;;;;26.80;11.43;;;;;;;;;;6259923;28;20047;-75
2022/01/28 14:55:43;;;;;;;18.73;9.60;;;;;;;;;;6235109;28;20052;-76
2022/01/28 14:58:45;;;;;;;29.65;10.50;;;;;;;;;;6246567;28;20013;-75
2022/01/28 15:01:45;;;;;;;42.28;15.20;;;;;;;;;;6253632;28;20112;-76
2022/01/28 15:04:45;;;;;;;23.53;9.47;;;;;;;;;;6255051;28;20025;-76
2022/01/28 15:07:47;;;;;;;33.45;12.00;;;;;;;;;;6248973;28;20256;-76
2022/01/28 15:10:47;;;;;;;39.97;15.50;;;;;;;;;;6254644;28;20287;-76
2022/01/28 15:13:47;;;;;;;29.38;12.55;;;;;;;;;;6244581;28;20075;-76
2022/01/28 15:16:48;;;;;;;47.80;21.05;;;;;;;;;;6225839;28;20653;-76
2022/01/28 15:19:49;;;;;;;44.90;15.40;;;;;;;;;;6243879;28;20036;-76
2022/01/28 15:22:49;;;;;;;28.25;12.50;;;;;;;;;;6243398;28;20481;-77
2022/01/28 15:25:49;;;;;;;45.97;19.63;;;;;;;;;;6245356;28;20509;-77
2022/01/28 15:29:22;;;;;;;27.27;11.20;;;;;;;;;;6235850;28;20526;-77
2022/01/28 15:38:34;;;;;;;29.38;12.77;;;;;;;;;;6257098;28;20041;-78
2022/01/28 15:41:34;;;;;;;23.65;9.48;;;;;;;;;;6230194;28;20279;-78
2022/01/28 15:44:35;;;;;;;19.00;8.40;;;;;;;;;;6248955;28;20067;-77
2022/01/28 15:47:36;;;;;;;22.75;9.18;;;;;;;;;;6247969;28;20317;-77
2022/01/28 15:50:36;;;;;;;16.90;8.18;;;;;;;;;;6248406;28;20079;-78
2022/01/28 15:53:37;;;;;;;21.58;8.70;;;;;;;;;;6253697;28;20032;-77
2022/01/28 15:56:37;;;;;;;27.55;9.80;;;;;;;;;;6254574;28;20059;-77
2022/01/28 15:59:38;;;;;;;20.50;5.72;;;;;;;;;;6226358;28;20025;-77
2022/01/28 16:02:38;;;;;;;18.48;7.55;;;;;;;;;;6250481;28;20018;-77
2022/01/28 16:05:38;;;;;;;27.13;10.63;;;;;;;;;;6253534;28;20027;-78
2022/01/28 16:08:39;;;;;;;17.48;8.75;;;;;;;;;;6252492;28;20734;-77
2022/01/28 16:12:28;;;;;;;18.85;8.15;;;;;;;;;;6233864;28;20342;-77
2022/01/28 16:18:39;;;;;;;27.70;11.90;;;;;;;;;;6233910;28;20029;-77
2022/01/28 16:21:39;;;;;;;16.60;8.30;;;;;;;;;;6242809;28;20033;-78
2022/01/28 16:24:40;;;;;;;23.00;8.88;;;;;;;;;;6242496;28;20381;-78
2022/01/28 16:27:40;;;;;;;22.58;10.75;;;;;;;;;;6225171;28;20086;-78
2022/01/28 16:30:40;;;;;;;25.75;8.65;;;;;;;;;;6239689;28;20493;-78
2022/01/28 16:33:40;;;;;;;22.05;9.80;;;;;;;;;;6251439;28;20496;-78
2022/01/28 16:36:45;;;;;;;20.93;7.47;;;;;;;;;;6233056;28;20025;-78
2022/01/28 16:39:48;;;;;;;25.40;8.82;;;;;;;;;;6248688;28;20608;-78
2022/01/28 16:42:54;;;;;;;35.33;16.80;;;;;;;;;;6246146;28;20045;-78
2022/01/28 16:45:56;;;;;;;30.73;13.38;;;;;;;;;;6225036;28;20363;-78
2022/01/28 16:48:57;;;;;;;36.08;14.57;;;;;;;;;;6247056;28;20013;-78
2022/01/28 16:51:57;;;;;;;39.67;16.77;;;;;;;;;;6244381;28;20024;-78
2022/01/28 16:55:00;;;;;;;29.67;15.40;;;;;;;;;;6240819;28;20435;-78
2022/01/28 16:58:00;;;;;;;42.25;16.20;;;;;;;;;;6243131;28;20648;-78
2022/01/28 17:01:00;;;;;;;70.07;27.90;;;;;;;;;;6258429;28;20033;-78
2022/01/28 17:04:00;;;;;;;41.60;17.13;;;;;;;;;;6256533;28;20734;-78
2022/01/28 17:07:01;;;;;;;25.90;15.55;;;;;;;;;;6266307;28;20263;-78
2022/01/28 17:10:05;;;;;;;49.20;21.38;;;;;;;;;;6249481;28;20058;-77
2022/01/28 17:13:06;;;;;;;33.42;15.90;;;;;;;;;;6258741;28;20104;-78
2022/01/28 17:16:07;;;;;;;42.08;15.68;;;;;;;;;;6256156;28;20562;-78
2022/01/28 17:19:07;;;;;;;41.10;15.95;;;;;;;;;;6266438;28;20032;-78
2022/01/28 17:22:07;;;;;;;44.20;20.00;;;;;;;;;;6243535;28;20081;-77
2022/01/28 17:25:08;;;;;;;49.40;21.50;;;;;;;;;;6258285;28;20304;-77
2022/01/28 17:28:09;;;;;;;41.73;18.43;;;;;;;;;;6232720;28;20264;-77
2022/01/28 17:31:09;;;;;;;41.37;16.47;;;;;;;;;;6261829;28;20348;-78
2022/01/28 17:34:09;;;;;;;41.42;15.90;;;;;;;;;;6249594;28;20692;-78
2022/01/28 17:37:12;;;;;;;35.20;15.98;;;;;;;;;;6264810;28;20131;-78
2022/01/28 17:40:13;;;;;;;52.55;24.85;;;;;;;;;;6268920;28;20021;-77
2022/01/28 17:43:13;;;;;;;39.92;15.82;;;;;;;;;;6259063;28;20029;-77
2022/01/28 17:46:14;;;;;;;23.67;10.50;;;;;;;;;;6250604;28;20013;-77
2022/01/28 17:49:14;;;;;;;40.95;16.90;;;;;;;;;;6245896;28;20035;-77
2022/01/28 17:52:15;;;;;;;39.20;14.07;;;;;;;;;;6258189;28;20016;-77
2022/01/28 17:55:15;;;;;;;33.78;12.68;;;;;;;;;;6265899;28;20032;-77
2022/01/28 17:58:15;;;;;;;28.08;14.40;;;;;;;;;;6239307;28;20022;-77
2022/01/28 18:01:16;;;;;;;24.83;12.95;;;;;;;;;;6243195;28;20009;-77
2022/01/28 18:04:16;;;;;;;27.65;11.00;;;;;;;;;;6254026;28;20021;-77
2022/01/28 18:07:17;;;;;;;20.88;10.18;;;;;;;;;;6252095;28;20066;-77
2022/01/28 18:10:20;;;;;;;16.92;8.07;;;;;;;;;;6232778;28;20017;-77
2022/01/28 18:13:20;;;;;;;27.83;9.93;;;;;;;;;;6232332;28;20025;-77
2022/01/28 18:16:20;;;;;;;24.27;9.10;;;;;;;;;;6259862;28;20025;-77
2022/01/28 18:19:21;;;;;;;31.03;17.73;;;;;;;;;;6237778;28;20326;-77
2022/01/28 18:22:21;;;;;;;62.38;27.52;;;;;;;;;;6253565;28;20279;-78
2022/01/28 18:25:21;;;;;;;61.63;25.97;;;;;;;;;;6258585;28;20017;-77
2022/01/28 18:28:21;;;;;;;41.08;17.85;;;;;;;;;;6260357;28;20284;-77
2022/01/28 18:31:21;;;;;;;31.63;13.20;;;;;;;;;;6265694;28;20396;-77
2022/01/28 18:34:23;;;;;;;28.08;11.07;;;;;;;;;;6263170;28;20790;-77
2022/01/28 18:37:23;;;;;;;32.43;12.67;;;;;;;;;;6244883;28;20041;-77
2022/01/28 18:40:23;;;;;;;44.87;17.13;;;;;;;;;;6257712;28;20058;-77
2022/01/28 18:43:33;;;;;;;57.47;21.85;;;;;;;;;;6259178;28;20340;-77
2022/01/28 18:46:41;;;;;;;43.83;16.33;;;;;;;;;;6261490;28;20092;-77
2022/01/28 18:49:43;;;;;;;40.22;18.77;;;;;;;;;;6256231;28;20473;-77
2022/01/28 18:52:43;;;;;;;42.78;18.75;;;;;;;;;;6241277;28;20499;-77
2022/01/28 18:55:43;;;;;;;36.03;16.08;;;;;;;;;;6259706;28;20097;-77
2022/01/28 18:58:43;;;;;;;16.87;9.03;;;;;;;;;;6250771;28;20021;-77
2022/01/28 19:01:44;;;;;;;30.63;10.53;;;;;;;;;;6240642;28;20366;-77
2022/01/28 19:04:45;;;;;;;17.52;5.72;;;;;;;;;;6241113;28;20267;-77
2022/01/28 19:07:46;;;;;;;10.82;3.00;;;;;;;;;;6256382;28;20081;-77
2022/01/28 19:10:47;;;;;;;9.65;3.00;;;;;;;;;;6248601;28;20496;-77
2022/01/28 19:17:26;;;;;;;4.68;2.63;;;;;;;;;;6247145;28;20016;-77
2022/01/28 19:20:26;;;;;;;6.60;2.45;;;;;;;;;;6239405;28;20032;-77